Impacts TAF Board
For situational awareness. Not to be used for flight planning purposes.
IDs:

KDEN - Denver Intl, CO, US

Issued at 1120 UTC 05 Apr 2020
Updated at 1351 UTC 05 Apr 2020
Potential Impact None Slight Moderate High
Time1253Z 05/14Z 05/15Z 05/16Z 05/17Z 05/18Z 05/19Z 05/20Z 05/21Z 05/22Z 05/23Z 06/00Z 06/01Z 06/02Z>>
Type OBS PRVL PRVL PRVL PRVL PRVL PRVL PRVL PRVL PRVL PRVL PRVL PRVL PRVL
VIS 10 >6 >6 >6 >6 >6 >6 >6 >6 >6 >6 >6 >6 >6
CIG -- -- -- -- -- -- -- -- -- 140 140 140 -- --
Cover SCT SCT SCT SCT SCT SCT SCT SCT SCT BKN BKN BKN SCT SCT
FltCat VFR VFR VFR VFR VFR VFR VFR VFR VFR VFR VFR VFR VFR VFR
WX -- -- -- -- -- -- -- -- -- -- -- -- -- --
WDir 230 210 240 240 240 240 100 100 100 280 280 280 140 140
WSpd 8 9 7 7 7 7 7 7 7 10 10 10 10 10
WGst -- -- -- -- -- -- -- -- -- 17 17 17 -- --
Raw TAF
KDEN 051120Z 0512/0618 21009KT P6SM FEW110 SCT220
  FM051500 24007KT P6SM FEW110 SCT220
  FM051900 10007KT P6SM FEW090 SCT140
  FM052200 28010G17KT P6SM FEW090 BKN140
  FM060100 14010KT P6SM FEW100 SCT140
  FM060500 19011KT P6SM FEW200
  FM061500 24007KT P6SM FEW200


Raw METAR
KDEN 051253Z 23008KT 10SM FEW110 SCT220 03/M03 A2981 RMK AO2 SLP068 T00331028
KDEN 051153Z 20006KT 10SM FEW110 SCT220 03/M03 A2980 RMK AO2 SLP060 T00281028 10061 20028 53003
KDEN 051053Z 24009KT 10SM FEW110 FEW220 05/M03 A2980 RMK AO2 SLP053 T00501028

METAR Board
Radar Display
Forecast Discussion
For situational awareness. Not to be used for flight planning purposes.